createdAt,value
2019-06-07T00:02:00.514Z,16.10
2019-06-07T00:04:28.200Z,16.30
2019-06-07T00:06:55.737Z,16.20
2019-06-07T00:09:24.289Z,16.40
2019-06-07T00:11:51.624Z,16.40
2019-06-07T00:14:21.144Z,16.40
2019-06-07T00:16:48.315Z,16.30
2019-06-07T00:19:16.250Z,16.40
2019-06-07T00:24:15.950Z,16.40
2019-06-07T00:26:57.918Z,16.40
2019-06-07T00:29:15.440Z,16.40
2019-06-07T00:31:41.498Z,16.30
2019-06-07T00:34:10.720Z,16.20
2019-06-07T00:36:38.318Z,16.20
2019-06-07T00:39:07.766Z,16.20
2019-06-07T00:41:35.192Z,16.20
2019-06-07T00:44:02.730Z,16.20
2019-06-07T00:46:30.126Z,16.10
2019-06-07T00:48:57.533Z,16.10
2019-06-07T00:51:25.196Z,16.10
2019-06-07T00:53:52.595Z,16.10
2019-06-07T00:56:21.725Z,16.10
2019-06-07T00:59:09.676Z,16.10
2019-06-07T01:01:22.155Z,16.10
2019-06-07T01:03:47.856Z,16.20
2019-06-07T01:06:17.490Z,16.20
2019-06-07T01:08:44.844Z,16.20
2019-06-07T01:11:13.601Z,16.20
2019-06-07T01:13:41.406Z,16.20
2019-06-07T01:16:08.768Z,16.30
2019-06-07T01:18:42.876Z,16.30
2019-06-07T01:21:05.592Z,16.30
2019-06-07T01:24:11.040Z,16.30
2019-06-07T01:26:26.746Z,16.30
2019-06-07T01:28:52.217Z,16.30
2019-06-07T01:31:21.158Z,16.20
2019-06-07T01:33:51.243Z,16.20
2019-06-07T01:36:19.570Z,16.20
2019-06-07T01:38:47.290Z,16.10
2019-06-07T01:41:14.743Z,16.10
2019-06-07T01:43:42.145Z,16.00
2019-06-07T01:46:09.542Z,16.00
2019-06-07T01:48:48.971Z,15.90
2019-06-07T01:51:06.218Z,15.90
2019-06-07T01:53:33.626Z,15.90
2019-06-07T01:56:01.415Z,16.00
2019-06-07T01:58:29.255Z,16.00
2019-06-07T02:00:56.698Z,16.00
2019-06-07T02:03:26.945Z,15.90
2019-06-07T02:05:53.360Z,15.90
2019-06-07T02:08:22.194Z,15.90
2019-06-07T02:10:50.185Z,16.10
2019-06-07T02:13:18.529Z,16.10
2019-06-07T02:15:46.170Z,16.20
2019-06-07T02:18:13.626Z,16.10
2019-06-07T02:20:41.026Z,16.10
2019-06-07T02:23:08.459Z,16.10
2019-06-07T02:25:45.497Z,16.10
2019-06-07T02:28:27.363Z,16.20
2019-06-07T02:30:44.756Z,16.30
2019-06-07T02:33:05.255Z,16.20
2019-06-07T02:35:39.047Z,16.30
2019-06-07T02:38:01.871Z,16.30
2019-06-07T02:40:36.013Z,16.30
2019-06-07T02:42:58.618Z,16.30
2019-06-07T02:45:26.946Z,16.40
2019-06-07T02:47:55.514Z,16.30
2019-06-07T02:50:23.201Z,16.30
2019-06-07T02:52:50.718Z,16.30
2019-06-07T02:55:18.187Z,16.30
2019-06-07T02:57:45.666Z,16.30
2019-06-07T03:00:41.921Z,16.30
2019-06-07T03:02:44.669Z,16.30
2019-06-07T03:05:13.462Z,16.30
2019-06-07T03:07:45.071Z,16.20
2019-06-07T03:10:11.895Z,16.30
2019-06-07T03:12:41.640Z,16.30
2019-06-07T03:15:09.083Z,16.30
2019-06-07T03:17:48.888Z,16.30
2019-06-07T03:20:17.758Z,16.30
2019-06-07T03:22:45.172Z,16.30
2019-06-07T03:25:12.819Z,16.30
2019-06-07T03:27:49.553Z,16.30
2019-06-07T03:30:36.170Z,16.30
2019-06-07T03:32:47.228Z,16.30
2019-06-07T03:35:09.572Z,16.30
2019-06-07T03:37:40.722Z,16.30
2019-06-07T03:40:06.412Z,16.30
2019-06-07T03:42:34.872Z,16.30
2019-06-07T03:45:04.078Z,16.30
2019-06-07T03:47:33.494Z,16.40
2019-06-07T03:50:00.757Z,16.40
2019-06-07T03:52:31.587Z,16.40
2019-06-07T03:54:59.197Z,16.50
2019-06-07T03:57:28.652Z,16.50
2019-06-07T03:59:55.829Z,16.50
2019-06-07T04:02:23.304Z,16.50
2019-06-07T04:04:50.714Z,16.40
2019-06-07T04:07:18.125Z,16.40
2019-06-07T04:09:45.643Z,16.30
2019-06-07T04:12:13.048Z,16.40
2019-06-07T04:14:42.555Z,16.40
2019-06-07T04:17:09.980Z,16.30
2019-06-07T04:19:42.104Z,16.30
2019-06-07T04:22:06.587Z,16.40
2019-06-07T04:24:38.526Z,16.40
2019-06-07T04:27:03.431Z,16.50
2019-06-07T04:29:33.947Z,16.50
2019-06-07T04:32:01.122Z,16.50
2019-06-07T04:34:29.328Z,16.60
2019-06-07T04:37:00.538Z,16.50
2019-06-07T04:39:32.098Z,16.60
2019-06-07T04:41:59.664Z,16.60
2019-06-07T04:44:28.847Z,16.70
2019-06-07T04:46:58.371Z,16.80
2019-06-07T04:49:26.255Z,16.80
2019-06-07T04:51:55.474Z,16.80
2019-06-07T04:54:22.880Z,16.90
2019-06-07T04:56:50.302Z,17.00
2019-06-07T05:00:00.180Z,17.00
2019-06-07T05:01:46.952Z,17.00
2019-06-07T05:04:14.359Z,17.00
2019-06-07T05:06:42.484Z,17.00
2019-06-07T05:09:10.161Z,17.00
2019-06-07T05:11:39.335Z,17.10
2019-06-07T05:14:06.800Z,17.20
2019-06-07T05:16:36.632Z,17.40
2019-06-07T05:19:03.436Z,17.60
2019-06-07T05:21:51.525Z,17.70
2019-06-07T05:24:07.407Z,17.80
2019-06-07T05:26:30.486Z,17.80
2019-06-07T05:29:00.162Z,17.90
2019-06-07T05:31:27.970Z,17.90
2019-06-07T05:33:55.816Z,18.00
2019-06-07T05:36:23.682Z,18.00
2019-06-07T05:38:51.080Z,18.10
2019-06-07T05:41:18.475Z,18.30
2019-06-07T05:44:00.261Z,18.40
2019-06-07T05:46:15.248Z,18.40
2019-06-07T05:48:43.918Z,18.50
2019-06-07T05:51:11.606Z,18.60
2019-06-07T05:53:58.867Z,18.50
2019-06-07T05:56:26.794Z,18.50
2019-06-07T05:58:54.213Z,18.70
2019-06-07T06:03:50.890Z,18.90
2019-06-07T06:06:18.930Z,18.70
2019-06-07T06:08:47.944Z,18.60
2019-06-07T06:11:16.248Z,18.60
2019-06-07T06:14:05.672Z,18.80
2019-06-07T06:16:12.876Z,18.80
2019-06-07T06:18:41.321Z,18.70
2019-06-07T06:21:19.375Z,18.60
2019-06-07T06:23:40.516Z,18.80
2019-06-07T06:26:08.320Z,18.90
2019-06-07T06:28:37.188Z,18.90
2019-06-07T06:31:04.912Z,19.00
2019-06-07T06:33:34.781Z,19.10
2019-06-07T06:36:01.584Z,19.10
2019-06-07T06:38:28.984Z,19.20
2019-06-07T06:41:14.362Z,19.30
2019-06-07T06:43:25.772Z,19.30
2019-06-07T06:45:53.192Z,19.40
2019-06-07T06:48:21.868Z,19.40
2019-06-07T06:50:52.204Z,19.50
2019-06-07T06:53:18.460Z,19.60
2019-06-07T06:55:48.486Z,19.70
2019-06-07T06:58:15.792Z,19.80
2019-06-07T07:00:53.580Z,19.80
2019-06-07T07:05:48.638Z,20.00
2019-06-07T07:08:14.356Z,20.10
2019-06-07T07:10:43.382Z,20.20
2019-06-07T07:13:10.848Z,20.30
2019-06-07T07:15:38.276Z,20.40
2019-06-07T07:18:08.733Z,20.50
2019-06-07T07:20:35.124Z,20.50
2019-06-07T07:23:02.626Z,20.60
2019-06-07T07:25:30.068Z,20.70
2019-06-07T07:27:57.464Z,20.80
2019-06-07T07:30:39.829Z,20.90
2019-06-07T07:33:07.351Z,21.00
2019-06-07T07:35:34.690Z,21.10
2019-06-07T07:38:02.284Z,21.20
2019-06-07T07:40:57.238Z,21.40
2019-06-07T07:42:58.907Z,21.40
2019-06-07T07:45:26.392Z,21.40
2019-06-07T07:48:08.266Z,21.50
2019-06-07T07:50:22.996Z,21.40
2019-06-07T07:52:55.959Z,21.40
2019-06-07T07:55:20.543Z,21.40
2019-06-07T07:57:49.455Z,21.50
2019-06-07T08:00:49.446Z,21.60
2019-06-07T08:02:48.786Z,21.70
2019-06-07T08:05:23.498Z,21.80
2019-06-07T08:07:49.979Z,21.90
2019-06-07T08:10:15.184Z,22.00
2019-06-07T08:13:00.326Z,22.10
2019-06-07T08:15:12.232Z,22.20
2019-06-07T08:17:39.644Z,22.20
2019-06-07T08:20:07.597Z,22.30
2019-06-07T08:22:35.036Z,22.30
2019-06-07T08:25:04.475Z,22.30
2019-06-07T08:27:31.800Z,22.40
2019-06-07T08:30:25.381Z,22.60
2019-06-07T08:32:28.615Z,22.60
2019-06-07T08:35:01.698Z,22.80
2019-06-07T08:38:13.364Z,22.80
2019-06-07T08:39:56.732Z,22.90
2019-06-07T08:42:36.432Z,23.00
2019-06-07T08:44:54.334Z,23.10
2019-06-07T08:47:22.461Z,23.10
2019-06-07T08:49:50.664Z,23.20
2019-06-07T08:52:19.175Z,23.30
2019-06-07T08:54:47.150Z,23.30
2019-06-07T08:57:21.172Z,23.40
2019-06-07T08:59:43.774Z,23.40
2019-06-07T09:02:23.210Z,23.50
2019-06-07T09:04:40.427Z,23.50
2019-06-07T09:07:18.773Z,23.70
2019-06-07T09:09:37.383Z,23.80
2019-06-07T09:12:10.174Z,24.00
2019-06-07T09:14:34.067Z,24.10
2019-06-07T09:17:11.021Z,24.10
2019-06-07T09:19:31.235Z,24.20
2019-06-07T09:22:04.697Z,24.30
2019-06-07T09:24:28.290Z,24.30
2019-06-07T09:26:57.643Z,24.40
2019-06-07T09:29:25.222Z,24.40
2019-06-07T09:31:53.822Z,24.40
2019-06-07T09:34:21.385Z,24.60
2019-06-07T09:36:49.010Z,24.60
2019-06-07T09:39:18.425Z,24.70
2019-06-07T09:41:49.955Z,24.80
2019-06-07T09:44:25.084Z,24.80
2019-06-07T09:46:44.359Z,24.80
2019-06-07T09:49:21.110Z,24.90
2019-06-07T09:51:40.997Z,25.00
2019-06-07T09:54:11.201Z,25.00
2019-06-07T09:56:38.720Z,24.90
2019-06-07T09:59:09.124Z,25.00
2019-06-07T10:01:35.572Z,25.00
2019-06-07T10:04:08.240Z,25.10
2019-06-07T10:06:32.210Z,25.20
2019-06-07T10:11:28.871Z,25.30
2019-06-07T10:13:56.276Z,25.30
2019-06-07T10:16:24.334Z,25.50
2019-06-07T10:18:51.746Z,25.60
2019-06-07T10:21:20.342Z,25.70
2019-06-07T10:23:47.704Z,25.80
2019-06-07T10:26:15.115Z,25.80
2019-06-07T10:28:42.548Z,25.80
2019-06-07T10:31:11.466Z,25.90
2019-06-07T10:33:39.036Z,26.00
2019-06-07T10:36:06.687Z,26.00
2019-06-07T10:38:34.486Z,26.00
2019-06-07T10:41:02.877Z,26.10
2019-06-07T10:43:30.328Z,26.20
2019-06-07T10:45:57.985Z,26.30
2019-06-07T10:48:25.391Z,26.40
2019-06-07T10:50:52.832Z,26.50
2019-06-07T10:53:20.671Z,26.70
2019-06-07T10:55:48.418Z,26.70
2019-06-07T10:58:15.845Z,26.90
2019-06-07T11:00:43.298Z,26.90
2019-06-07T11:03:11.812Z,27.00
2019-06-07T11:05:39.369Z,27.00
2019-06-07T11:08:07.947Z,27.00
2019-06-07T11:10:35.528Z,27.00
2019-06-07T11:13:04.081Z,27.00
2019-06-07T11:15:31.969Z,27.10
2019-06-07T11:17:59.364Z,27.20
2019-06-07T11:20:26.810Z,27.30
2019-06-07T11:22:56.178Z,27.30
2019-06-07T11:25:23.607Z,27.30
2019-06-07T11:27:51.021Z,27.30
2019-06-07T11:30:18.794Z,27.30
2019-06-07T11:32:46.336Z,27.40
2019-06-07T11:35:15.514Z,27.50
2019-06-07T11:37:43.100Z,27.60
2019-06-07T11:40:27.768Z,27.70
2019-06-07T11:42:40.380Z,27.70
2019-06-07T11:45:10.498Z,27.80
2019-06-07T11:47:38.704Z,27.90
2019-06-07T11:50:07.283Z,27.90
2019-06-07T11:52:34.833Z,28.00
2019-06-07T11:55:02.705Z,28.00
2019-06-07T11:57:30.593Z,28.10
2019-06-07T11:59:58.025Z,28.10
2019-06-07T12:02:25.448Z,28.20
2019-06-07T12:04:52.871Z,28.30
2019-06-07T12:07:20.437Z,28.40
2019-06-07T12:09:56.254Z,28.60
2019-06-07T12:12:17.052Z,28.70
2019-06-07T12:14:44.501Z,28.70
2019-06-07T12:17:13.320Z,28.90
2019-06-07T12:19:40.856Z,28.90
2019-06-07T12:22:09.770Z,29.00
2019-06-07T12:24:37.474Z,29.00
2019-06-07T12:27:04.932Z,29.10
2019-06-07T12:29:34.002Z,29.10
2019-06-07T12:32:01.584Z,29.30
2019-06-07T12:34:28.910Z,29.30
2019-06-07T12:36:56.421Z,29.40
2019-06-07T12:39:23.798Z,29.40
2019-06-07T12:41:51.189Z,29.30
2019-06-07T12:44:18.888Z,29.40
2019-06-07T12:46:46.370Z,29.50
2019-06-07T12:49:15.531Z,29.60
2019-06-07T12:51:43.545Z,29.70
2019-06-07T12:54:10.948Z,29.70
2019-06-07T12:56:38.986Z,29.70
2019-06-07T12:59:06.472Z,29.70
2019-06-07T13:01:33.894Z,29.80
2019-06-07T13:04:01.377Z,29.80
2019-06-07T13:06:29.016Z,29.90
2019-06-07T13:08:56.432Z,30.10
2019-06-07T13:11:28.863Z,30.30
2019-06-07T13:13:53.080Z,30.40
2019-06-07T13:16:20.480Z,30.70
2019-06-07T13:18:47.903Z,30.60
2019-06-07T13:21:18.182Z,30.70
2019-06-07T13:23:44.673Z,30.80
2019-06-07T13:26:12.080Z,30.80
2019-06-07T13:28:39.664Z,30.90
2019-06-07T13:31:07.071Z,30.80
2019-06-07T13:33:38.653Z,30.90
2019-06-07T13:36:04.090Z,30.80
2019-06-07T13:38:31.498Z,30.80
2019-06-07T13:40:58.911Z,31.00
2019-06-07T13:43:27.992Z,31.10
2019-06-07T13:45:55.595Z,31.20
2019-06-07T13:48:23.358Z,31.20
2019-06-07T13:50:51.222Z,31.60
2019-06-07T13:53:18.994Z,32.20
2019-06-07T13:55:46.560Z,32.80
2019-06-07T13:58:14.193Z,33.00
2019-06-07T14:00:41.909Z,33.60
2019-06-07T14:03:09.320Z,33.50
2019-06-07T14:05:36.842Z,33.90
2019-06-07T14:08:04.291Z,34.20
2019-06-07T14:10:31.709Z,34.20
2019-06-07T14:12:59.168Z,34.80
2019-06-07T14:15:26.596Z,35.20
2019-06-07T14:17:54.000Z,35.30
2019-06-07T14:20:26.702Z,35.60
2019-06-07T14:22:54.393Z,35.70
2019-06-07T14:25:21.570Z,35.50
2019-06-07T14:27:49.192Z,35.40
2019-06-07T14:30:18.288Z,35.70
2019-06-07T14:32:47.530Z,35.90
2019-06-07T14:35:15.496Z,36.30
2019-06-07T14:37:42.932Z,36.60
2019-06-07T14:40:10.748Z,37.00
2019-06-07T14:42:38.672Z,37.00
2019-06-07T14:45:06.822Z,37.40
2019-06-07T14:47:34.340Z,37.60
2019-06-07T14:50:02.074Z,37.20
2019-06-07T14:52:30.734Z,37.60
2019-06-07T14:54:58.223Z,37.60
2019-06-07T14:57:26.924Z,37.70
2019-06-07T14:59:54.653Z,37.90
2019-06-07T15:02:22.066Z,37.80
2019-06-07T15:04:49.520Z,37.40
2019-06-07T15:07:16.946Z,37.20
2019-06-07T15:09:44.381Z,37.40
2019-06-07T15:12:24.713Z,37.70
2019-06-07T15:14:41.229Z,37.70
2019-06-07T15:17:08.636Z,37.80
2019-06-07T15:19:36.478Z,37.60
2019-06-07T15:22:03.960Z,37.60
2019-06-07T15:24:36.159Z,37.70
2019-06-07T15:27:02.512Z,37.70
2019-06-07T15:29:29.938Z,37.90
2019-06-07T15:31:57.356Z,37.70
2019-06-07T15:34:25.008Z,37.60
2019-06-07T15:36:52.441Z,37.20
2019-06-07T15:39:19.853Z,37.40
2019-06-07T15:41:47.353Z,37.20
2019-06-07T15:44:14.764Z,37.50
2019-06-07T15:46:42.208Z,38.10
2019-06-07T15:49:09.778Z,38.40
2019-06-07T15:51:38.513Z,38.60
2019-06-07T15:54:06.137Z,39.00
2019-06-07T15:56:34.668Z,39.20
2019-06-07T15:59:02.400Z,39.00
2019-06-07T16:01:31.171Z,38.80
2019-06-07T16:04:18.137Z,38.80
2019-06-07T16:06:45.570Z,38.40
2019-06-07T16:09:14.802Z,38.50
2019-06-07T16:11:43.702Z,38.60
2019-06-07T16:14:11.742Z,38.60
2019-06-07T16:16:39.167Z,38.70
2019-06-07T16:19:06.848Z,38.60
2019-06-07T16:21:35.278Z,38.70
2019-06-07T16:24:02.789Z,38.80
2019-06-07T16:26:30.257Z,38.90
2019-06-07T16:28:57.976Z,38.70
2019-06-07T16:31:25.392Z,38.60
2019-06-07T16:33:53.174Z,37.50
2019-06-07T16:36:20.578Z,36.30
2019-06-07T16:38:48.610Z,35.40
2019-06-07T16:41:18.122Z,35.10
2019-06-07T16:43:45.540Z,34.90
2019-06-07T16:46:12.961Z,34.90
2019-06-07T16:48:40.819Z,34.90
2019-06-07T16:51:08.535Z,34.90
2019-06-07T16:53:36.166Z,35.40
2019-06-07T16:56:04.582Z,35.50
2019-06-07T16:58:33.785Z,35.90
2019-06-07T17:01:01.194Z,36.20
2019-06-07T17:03:28.912Z,36.40
2019-06-07T17:05:56.525Z,36.70
2019-06-07T17:08:24.126Z,37.10
2019-06-07T17:10:52.258Z,36.90
2019-06-07T17:13:32.419Z,36.40
2019-06-07T17:15:49.044Z,36.20
2019-06-07T17:18:16.748Z,36.60
2019-06-07T17:20:45.311Z,36.30
2019-06-07T17:23:12.811Z,36.10
2019-06-07T17:25:41.344Z,36.40
2019-06-07T17:28:08.896Z,36.50
2019-06-07T17:30:36.370Z,36.70
2019-06-07T17:33:04.248Z,36.70
2019-06-07T17:35:31.636Z,35.90
2019-06-07T17:38:00.213Z,34.30
2019-06-07T17:40:27.659Z,32.80
2019-06-07T17:42:55.091Z,31.60
2019-06-07T17:45:22.722Z,30.60
2019-06-07T17:47:50.354Z,30.30
2019-06-07T17:50:18.160Z,30.10
2019-06-07T17:52:45.929Z,29.50
2019-06-07T17:55:14.541Z,29.10
2019-06-07T17:57:42.268Z,28.80
2019-06-07T18:02:40.660Z,28.10
2019-06-07T18:05:08.600Z,27.60
2019-06-07T18:07:36.340Z,27.50
2019-06-07T18:10:05.332Z,27.30
2019-06-07T18:12:32.755Z,27.10
2019-06-07T18:15:00.208Z,26.80
2019-06-07T18:17:34.561Z,26.40
2019-06-07T18:19:57.108Z,26.20
2019-06-07T18:22:24.529Z,26.20
2019-06-07T18:24:53.161Z,26.10
2019-06-07T18:27:21.146Z,25.90
2019-06-07T18:29:48.609Z,25.60
2019-06-07T18:32:16.410Z,25.50
2019-06-07T18:34:43.943Z,25.40
2019-06-07T18:37:11.371Z,25.30
2019-06-07T18:39:38.920Z,24.90
2019-06-07T18:42:06.320Z,24.70
2019-06-07T18:44:33.732Z,24.50
2019-06-07T18:47:01.212Z,24.40
2019-06-07T18:49:28.631Z,24.20
2019-06-07T18:52:15.302Z,24.10
2019-06-07T18:54:42.714Z,23.90
2019-06-07T18:57:12.317Z,23.70
2019-06-07T18:59:39.357Z,23.60
2019-06-07T19:02:07.076Z,23.40
2019-06-07T19:04:34.481Z,23.30
2019-06-07T19:07:01.917Z,23.20
2019-06-07T19:09:29.548Z,23.00
2019-06-07T19:11:56.955Z,22.90
2019-06-07T19:14:36.749Z,22.80
2019-06-07T19:16:53.999Z,22.70
2019-06-07T19:19:21.412Z,22.60
2019-06-07T19:21:49.894Z,22.50
2019-06-07T19:24:17.328Z,22.40
2019-06-07T19:26:44.731Z,22.30
2019-06-07T19:29:12.512Z,22.20
2019-06-07T19:31:39.915Z,22.00
2019-06-07T19:34:07.331Z,21.90
2019-06-07T19:36:47.977Z,21.70
2019-06-07T19:39:05.646Z,21.50
2019-06-07T19:41:33.051Z,21.40
2019-06-07T19:44:00.854Z,21.40
2019-06-07T19:46:28.257Z,21.20
2019-06-07T19:48:56.529Z,21.20
2019-06-07T19:51:24.484Z,21.20
2019-06-07T19:53:52.903Z,21.10
2019-06-07T19:56:20.420Z,21.00
2019-06-07T19:58:47.907Z,21.00
2019-06-07T20:01:15.332Z,20.90
2019-06-07T20:03:42.728Z,20.80
2019-06-07T20:06:10.591Z,20.80
2019-06-07T20:08:38.364Z,20.60
2019-06-07T20:11:05.793Z,20.50
2019-06-07T20:13:33.467Z,20.50
2019-06-07T20:16:00.956Z,20.50
2019-06-07T20:18:28.340Z,20.40
2019-06-07T20:20:58.536Z,20.40
2019-06-07T20:23:28.050Z,20.30
2019-06-07T20:25:55.344Z,20.20
2019-06-07T20:28:22.972Z,20.10
2019-06-07T20:30:52.269Z,20.10
2019-06-07T20:33:19.828Z,20.00
2019-06-07T20:35:47.578Z,19.90
2019-06-07T20:38:14.995Z,19.90
2019-06-07T20:40:42.408Z,19.80
2019-06-07T20:43:10.080Z,19.80
2019-06-07T20:45:37.500Z,19.70
2019-06-07T20:48:06.191Z,19.70
2019-06-07T20:50:35.845Z,19.60
2019-06-07T20:53:03.261Z,19.50
2019-06-07T20:55:30.769Z,19.50
2019-06-07T20:57:59.102Z,19.50
2019-06-07T21:00:26.681Z,19.50
2019-06-07T21:02:54.087Z,19.40
2019-06-07T21:05:22.867Z,19.40
2019-06-07T21:07:50.596Z,19.30
2019-06-07T21:10:18.269Z,19.20
2019-06-07T21:12:45.731Z,19.10
2019-06-07T21:15:14.696Z,19.10
2019-06-07T21:17:42.459Z,19.00
2019-06-07T21:20:14.003Z,19.00
2019-06-07T21:22:39.399Z,18.90
2019-06-07T21:25:07.322Z,18.90
2019-06-07T21:27:35.156Z,18.90
2019-06-07T21:30:03.407Z,18.90
2019-06-07T21:32:30.944Z,18.90
2019-06-07T21:34:58.397Z,18.90
2019-06-07T21:37:25.819Z,18.80
2019-06-07T21:39:53.235Z,18.80
2019-06-07T21:42:21.050Z,18.80
2019-06-07T21:44:48.443Z,18.70
2019-06-07T21:47:15.885Z,18.60
2019-06-07T21:49:43.744Z,18.60
2019-06-07T21:52:11.135Z,18.60
2019-06-07T21:54:40.394Z,18.60
2019-06-07T21:57:09.002Z,18.60
2019-06-07T21:59:36.487Z,18.60
2019-06-07T22:02:05.353Z,18.50
2019-06-07T22:04:35.072Z,18.50
2019-06-07T22:07:03.307Z,18.50
2019-06-07T22:09:31.064Z,18.40
2019-06-07T22:11:58.504Z,18.30
2019-06-07T22:14:25.923Z,18.30
2019-06-07T22:16:53.336Z,18.30
2019-06-07T22:19:20.864Z,18.20
2019-06-07T22:22:01.750Z,18.20
2019-06-07T22:24:18.797Z,18.20
2019-06-07T22:26:46.532Z,18.20
2019-06-07T22:29:15.748Z,18.20
2019-06-07T22:31:43.284Z,18.20
2019-06-07T22:34:10.864Z,18.20
2019-06-07T22:36:38.295Z,18.10
2019-06-07T22:39:07.538Z,18.00
2019-06-07T22:41:35.189Z,18.30
2019-06-07T22:44:02.807Z,18.50
2019-06-07T22:46:37.248Z,18.70
2019-06-07T22:48:59.625Z,18.80
2019-06-07T22:51:27.028Z,18.90
2019-06-07T22:53:54.505Z,18.90
2019-06-07T22:56:42.087Z,19.00
2019-06-07T22:59:14.093Z,19.00
2019-06-07T23:01:39.811Z,19.00
2019-06-07T23:04:08.445Z,18.90
2019-06-07T23:06:36.229Z,18.90
2019-06-07T23:09:05.523Z,18.80
2019-06-07T23:11:32.979Z,18.80
2019-06-07T23:14:00.384Z,18.80
2019-06-07T23:16:27.799Z,18.70
2019-06-07T23:18:55.382Z,18.60
2019-06-07T23:21:22.799Z,18.60
2019-06-07T23:23:50.205Z,18.50
2019-06-07T23:26:18.330Z,18.40
2019-06-07T23:28:45.766Z,18.40
2019-06-07T23:31:14.350Z,18.40
2019-06-07T23:33:42.079Z,18.40
2019-06-07T23:36:10.905Z,18.80
2019-06-07T23:38:38.435Z,19.30
2019-06-07T23:41:05.871Z,19.30
2019-06-07T23:43:33.274Z,19.40
2019-06-07T23:46:00.672Z,19.30
2019-06-07T23:48:28.392Z,19.20
2019-06-07T23:50:55.822Z,19.10
2019-06-07T23:53:23.203Z,19.10
2019-06-07T23:55:50.663Z,19.00
2019-06-07T23:58:18.608Z,18.90
